5AR7 weather

Keller Airfield
Weiner, Arkansas, United States

Public forecast

Using degrees Fahrenheit for public forecast. Weather courtesy of forecast.io.

Closest aviation weather report (METAR) to Keller Airfield

Closest report is Jonesboro Municipal Airport, 11.3 nm (20.9 km) NE. Retrieved 2020/07/03 18:53 UTC (55 minutes ago):

KJBR 031853Z AUTO 18007KT 10SM FEW040 SCT047 BKN065 32/24 A2995 RMK AO2 SLP137 T03170239 TSNO

Closest aviation forecast (TAF) to Keller Airfield

Closest forecast is Jonesboro Municipal Airport, 11.3 nm (20.9 km) NE. Retrieved 2020/07/03 18:39 UTC (1 hour ago):

TAF KJBR 031735Z 0318/0418 10004KT P6SM VCTS SCT035CB SCT250 FM040200 07003KT P6SM SCT250 FM041500 07005KT P6SM SCT035 AMD NOT SKED